Time;durP1;ratioP1;P1;durP2;ratioP2;P2;SDS_P1;SDS_P2;PMS_P1;PMS_P2;Temp;Humidity;BMP_temperature;BMP_pressure;BME280_temperature;BME280_humidity;BME280_pressure;Samples;Min_cycle;Max_cycle;Signal;HPM_P1;HPM_P2
2022/02/24 00:01:55;;;;;;;4.13;2.58;;;6.20;99.90;;;;;;5031865;28;20307;-75
2022/02/24 00:04:20;;;;;;;3.03;2.30;;;6.40;99.90;;;;;;5033334;28;20030;-73
2022/02/24 00:06:46;;;;;;;4.03;2.45;;;6.60;99.90;;;;;;5032244;28;20017;-73
2022/02/24 00:09:12;;;;;;;4.57;2.47;;;6.60;99.90;;;;;;5036011;28;20034;-75
2022/02/24 00:11:37;;;;;;;3.08;2.45;;;6.70;99.90;;;;;;5038277;28;20099;-76
2022/02/24 00:14:03;;;;;;;2.55;2.33;;;6.70;99.90;;;;;;5028776;28;20425;-75
2022/02/24 00:16:29;;;;;;;2.95;2.15;;;6.70;99.90;;;;;;5025779;28;20041;-75
2022/02/24 00:18:54;;;;;;;3.72;2.22;;;6.80;99.90;;;;;;5022842;28;20073;-74
2022/02/24 00:21:21;;;;;;;4.28;2.50;;;6.80;99.90;;;;;;5029289;28;20022;-70
2022/02/24 00:23:47;;;;;;;2.88;2.33;;;6.90;99.90;;;;;;5025906;28;20065;-71
2022/02/24 00:26:13;;;;;;;4.78;2.70;;;6.90;99.90;;;;;;5035283;28;20075;-73
2022/02/24 00:28:39;;;;;;;2.92;2.47;;;6.90;99.90;;;;;;5034698;28;20584;-74
2022/02/24 00:31:07;;;;;;;2.95;2.00;;;6.90;99.90;;;;;;5037650;28;20112;-75
2022/02/24 00:33:32;;;;;;;2.38;1.95;;;7.00;99.90;;;;;;5036614;28;20040;-75
2022/02/24 00:35:58;;;;;;;2.60;1.85;;;7.10;99.90;;;;;;5039517;28;20025;-75
2022/02/24 00:38:23;;;;;;;2.60;1.80;;;7.10;99.90;;;;;;5032556;28;20037;-72
2022/02/24 00:40:49;;;;;;;4.03;2.60;;;7.00;99.90;;;;;;5026137;28;20028;-72
2022/02/24 00:43:14;;;;;;;3.72;2.50;;;7.00;99.90;;;;;;5027594;28;20029;-74
2022/02/24 00:45:40;;;;;;;3.60;2.20;;;7.00;99.90;;;;;;5030203;28;20053;-74
2022/02/24 00:48:08;;;;;;;5.18;2.40;;;7.00;99.90;;;;;;5024700;28;20041;-73
2022/02/24 00:50:34;;;;;;;3.10;2.42;;;6.90;99.90;;;;;;5011976;28;20069;-73
2022/02/24 00:52:59;;;;;;;3.88;2.65;;;6.90;99.90;;;;;;5024271;28;20057;-72
2022/02/24 00:55:25;;;;;;;4.22;2.10;;;6.90;99.90;;;;;;5028957;28;20028;-73
2022/02/24 00:57:52;;;;;;;3.60;2.67;;;7.00;99.90;;;;;;5028356;28;20095;-75
2022/02/24 01:00:18;;;;;;;4.35;3.30;;;7.00;99.90;;;;;;5042749;28;20029;-74
2022/02/24 01:02:43;;;;;;;3.47;2.17;;;7.00;99.90;;;;;;5039923;28;20017;-73
2022/02/24 01:05:09;;;;;;;2.97;2.08;;;7.00;99.90;;;;;;5032538;28;20431;-72
2022/02/24 01:07:35;;;;;;;4.32;2.22;;;7.00;99.90;;;;;;5038420;28;20059;-73
2022/02/24 01:10:00;;;;;;;4.18;1.60;;;7.10;99.90;;;;;;5033758;28;20113;-74
2022/02/24 01:12:26;;;;;;;5.07;2.15;;;7.20;99.90;;;;;;5039754;28;20104;-73
2022/02/24 01:14:51;;;;;;;3.25;2.15;;;7.20;99.90;;;;;;5043513;28;20146;-73
2022/02/24 01:17:17;;;;;;;2.53;2.00;;;7.30;99.90;;;;;;5037867;28;20038;-73
2022/02/24 01:19:43;;;;;;;2.45;1.42;;;7.50;99.90;;;;;;5045255;28;20026;-73
2022/02/24 01:22:08;;;;;;;3.47;1.77;;;7.50;99.90;;;;;;5036830;28;20022;-74
2022/02/24 01:24:34;;;;;;;3.90;2.88;;;7.40;99.90;;;;;;5046237;28;20009;-75
2022/02/24 01:26:59;;;;;;;4.13;3.30;;;7.40;99.90;;;;;;5031827;28;20025;-73
2022/02/24 01:29:25;;;;;;;6.07;3.40;;;7.60;99.90;;;;;;5034734;28;20070;-74
2022/02/24 01:31:50;;;;;;;5.53;2.47;;;7.60;99.90;;;;;;5041749;28;20044;-74
2022/02/24 01:34:19;;;;;;;5.32;3.55;;;7.50;99.90;;;;;;5036489;28;20052;-73
2022/02/24 01:36:45;;;;;;;8.02;5.25;;;7.40;99.90;;;;;;5023527;28;20097;-74
2022/02/24 01:39:10;;;;;;;5.45;3.75;;;7.30;99.90;;;;;;5037189;28;20169;-73
2022/02/24 01:41:36;;;;;;;6.38;3.50;;;7.10;99.90;;;;;;5031525;28;20029;-73
2022/02/24 01:44:13;;;;;;;4.88;3.05;;;6.90;99.90;;;;;;5033236;28;20029;-74
2022/02/24 01:46:40;;;;;;;6.88;3.78;;;6.80;99.90;;;;;;5041028;28;20025;-75
2022/02/24 01:49:06;;;;;;;6.32;4.60;;;6.70;99.90;;;;;;5030841;28;20611;-74
2022/02/24 01:51:34;;;;;;;5.68;3.47;;;6.60;99.90;;;;;;5023763;28;20045;-74
2022/02/24 01:53:59;;;;;;;10.48;4.13;;;6.50;99.90;;;;;;5022812;28;20030;-72
2022/02/24 01:56:26;;;;;;;4.55;3.15;;;6.60;99.90;;;;;;5039793;28;20021;-73
2022/02/24 01:58:51;;;;;;;7.95;5.13;;;6.60;99.90;;;;;;5037586;28;20053;-74
2022/02/24 02:01:18;;;;;;;6.20;3.67;;;6.70;99.90;;;;;;5042140;28;20099;-74
2022/02/24 02:03:44;;;;;;;9.23;3.97;;;6.60;99.90;;;;;;5040735;28;20014;-74
2022/02/24 02:06:10;;;;;;;4.85;4.10;;;6.50;99.90;;;;;;5030605;28;20121;-73
2022/02/24 02:08:36;;;;;;;6.03;4.18;;;6.40;99.90;;;;;;5044024;28;20029;-73
2022/02/24 02:11:02;;;;;;;7.13;4.28;;;6.30;99.90;;;;;;5043674;28;20021;-74
2022/02/24 02:13:33;;;;;;;5.45;4.30;;;6.30;99.90;;;;;;5035287;28;20029;-74
2022/02/24 02:15:58;;;;;;;10.20;4.63;;;6.30;99.90;;;;;;5045609;28;20044;-73
2022/02/24 02:18:24;;;;;;;13.98;5.93;;;6.30;99.90;;;;;;5040144;28;20620;-74
2022/02/24 02:20:51;;;;;;;9.27;4.40;;;6.30;99.90;;;;;;5033825;28;20031;-77
2022/02/24 02:23:17;;;;;;;7.25;5.00;;;6.20;99.90;;;;;;5020349;28;20106;-73
2022/02/24 02:25:42;;;;;;;6.88;4.72;;;6.30;99.90;;;;;;5022154;28;20052;-74
2022/02/24 02:28:08;;;;;;;10.63;4.82;;;6.40;99.90;;;;;;5029192;28;20029;-74
2022/02/24 02:30:34;;;;;;;9.73;5.07;;;6.40;99.90;;;;;;5018030;28;20053;-73
2022/02/24 02:33:00;;;;;;;8.25;5.55;;;6.40;99.90;;;;;;5021757;28;20471;-71
2022/02/24 02:35:26;;;;;;;5.93;4.75;;;6.30;99.90;;;;;;5019498;28;20474;-72
2022/02/24 02:37:52;;;;;;;12.50;5.10;;;6.30;99.90;;;;;;5028051;28;20493;-73
2022/02/24 02:40:18;;;;;;;8.50;5.43;;;6.40;99.90;;;;;;5027983;28;20021;-71
2022/02/24 02:42:44;;;;;;;4.95;4.38;;;6.40;99.90;;;;;;5023150;28;20120;-72
2022/02/24 02:45:10;;;;;;;5.10;4.18;;;6.50;99.90;;;;;;5028731;28;20107;-72
2022/02/24 02:47:36;;;;;;;7.70;5.13;;;6.50;99.90;;;;;;5025705;28;20033;-70
2022/02/24 02:50:03;;;;;;;11.00;5.22;;;6.60;99.90;;;;;;5035358;28;20029;-71
2022/02/24 02:52:29;;;;;;;7.82;4.20;;;6.50;99.90;;;;;;5027217;28;20032;-72
2022/02/24 02:55:01;;;;;;;10.27;5.32;;;6.40;99.90;;;;;;5036942;28;20029;-72
2022/02/24 02:57:26;;;;;;;9.02;5.60;;;6.40;99.90;;;;;;5027797;28;20025;-72
2022/02/24 02:59:52;;;;;;;7.55;6.55;;;6.30;99.90;;;;;;5012713;28;20545;-71
2022/02/24 03:02:18;;;;;;;14.07;6.32;;;6.40;99.90;;;;;;5026341;28;20151;-72
2022/02/24 03:04:43;;;;;;;15.23;6.88;;;6.40;99.90;;;;;;5024450;28;20025;-72
2022/02/24 03:07:09;;;;;;;15.27;7.00;;;6.30;99.90;;;;;;5022628;28;20028;-71
2022/02/24 03:09:34;;;;;;;14.80;7.47;;;6.10;99.90;;;;;;5034821;28;20108;-72
2022/02/24 03:12:00;;;;;;;12.07;6.80;;;6.00;99.90;;;;;;5033915;28;20026;-71
2022/02/24 03:14:25;;;;;;;9.90;5.90;;;6.00;99.90;;;;;;5024131;28;20046;-71
2022/02/24 03:16:51;;;;;;;13.57;7.63;;;5.90;99.90;;;;;;5021592;28;20037;-71
2022/02/24 03:19:16;;;;;;;18.35;7.07;;;5.90;99.90;;;;;;5025076;28;20057;-71
2022/02/24 03:21:42;;;;;;;19.30;6.82;;;5.90;99.90;;;;;;5020622;28;20045;-71
2022/02/24 03:24:07;;;;;;;24.65;7.70;;;5.90;99.90;;;;;;5023099;28;20105;-71
2022/02/24 03:26:33;;;;;;;19.88;6.72;;;5.90;99.90;;;;;;5024958;28;20044;-70
2022/02/24 03:28:59;;;;;;;14.43;7.57;;;6.00;99.90;;;;;;5027726;28;20163;-71
2022/02/24 03:31:24;;;;;;;16.98;7.57;;;6.00;99.90;;;;;;5021102;28;20121;-72
2022/02/24 03:33:50;;;;;;;11.90;5.85;;;6.20;99.90;;;;;;5020072;28;20087;-73
2022/02/24 03:36:15;;;;;;;10.43;6.35;;;6.30;99.90;;;;;;5019097;28;20045;-72
2022/02/24 03:38:41;;;;;;;8.13;5.57;;;6.30;99.90;;;;;;5023762;28;20394;-71
2022/02/24 03:41:07;;;;;;;11.93;6.18;;;6.50;99.90;;;;;;5029546;28;20061;-72
2022/02/24 03:43:32;;;;;;;10.38;6.60;;;6.40;99.90;;;;;;5025148;28;20018;-72
2022/02/24 03:45:58;;;;;;;12.27;6.03;;;6.50;99.90;;;;;;5022585;28;20026;-71
2022/02/24 03:48:23;;;;;;;8.88;6.82;;;6.20;99.90;;;;;;5023283;28;20045;-71
2022/02/24 03:50:49;;;;;;;18.23;7.10;;;6.30;99.90;;;;;;5021025;28;20034;-73
2022/02/24 03:53:15;;;;;;;9.07;5.82;;;6.40;99.90;;;;;;5020417;28;20494;-71
2022/02/24 03:55:40;;;;;;;8.27;5.53;;;6.40;99.90;;;;;;5020104;28;20072;-72
2022/02/24 03:58:06;;;;;;;10.75;5.78;;;6.40;99.90;;;;;;5026725;28;20032;-72
2022/02/24 04:00:31;;;;;;;8.00;5.32;;;6.50;99.90;;;;;;5030804;28;20028;-71
2022/02/24 04:02:57;;;;;;;11.45;5.55;;;6.40;99.90;;;;;;5028634;28;20490;-71
2022/02/24 04:05:22;;;;;;;8.27;4.60;;;6.30;99.90;;;;;;5023939;28;20018;-72
2022/02/24 04:07:48;;;;;;;7.65;5.20;;;6.10;99.90;;;;;;5032377;28;20018;-70
2022/02/24 04:10:14;;;;;;;8.63;4.50;;;6.10;99.90;;;;;;5031085;28;20045;-72
2022/02/24 04:12:39;;;;;;;10.30;5.60;;;6.00;99.90;;;;;;5031309;28;20024;-72
2022/02/24 04:15:05;;;;;;;10.60;5.28;;;6.00;99.90;;;;;;5028688;28;20389;-71
2022/02/24 04:17:30;;;;;;;9.32;5.78;;;5.90;99.90;;;;;;5021966;28;20049;-72
2022/02/24 04:19:56;;;;;;;10.95;6.15;;;5.90;99.90;;;;;;5035210;28;20025;-72
2022/02/24 04:22:21;;;;;;;8.27;5.18;;;5.90;99.90;;;;;;5028114;28;20022;-73
2022/02/24 04:24:47;;;;;;;10.07;5.18;;;5.80;99.90;;;;;;5030594;28;20100;-72
2022/02/24 04:27:12;;;;;;;9.15;5.57;;;5.80;99.90;;;;;;5035726;28;20051;-72
2022/02/24 04:29:39;;;;;;;7.65;5.00;;;5.70;99.90;;;;;;5030282;28;20067;-72
2022/02/24 04:32:05;;;;;;;10.93;6.25;;;5.70;99.90;;;;;;5021905;28;20438;-72
2022/02/24 04:34:30;;;;;;;8.35;5.10;;;5.70;99.90;;;;;;5029045;28;20041;-72
2022/02/24 04:36:56;;;;;;;4.03;3.35;;;5.60;99.90;;;;;;5026768;28;20519;-72
2022/02/24 04:39:21;;;;;;;4.80;3.15;;;5.80;99.90;;;;;;5030885;28;20508;-72
2022/02/24 04:41:48;;;;;;;4.55;2.20;;;5.90;99.90;;;;;;5020719;28;20393;-72
2022/02/24 04:44:13;;;;;;;5.30;2.33;;;6.00;99.90;;;;;;5026791;28;20022;-72
2022/02/24 04:46:39;;;;;;;5.93;2.40;;;6.20;99.90;;;;;;5025889;28;20037;-72
2022/02/24 04:49:04;;;;;;;4.43;2.30;;;6.40;99.90;;;;;;5029400;28;20025;-71
2022/02/24 04:51:30;;;;;;;2.92;2.25;;;6.40;99.90;;;;;;5022259;28;20029;-72
2022/02/24 04:53:56;;;;;;;5.47;2.35;;;6.40;99.90;;;;;;5030229;28;20032;-72
2022/02/24 04:56:21;;;;;;;3.45;1.83;;;6.60;99.90;;;;;;5025604;28;20029;-71
2022/02/24 04:58:47;;;;;;;4.82;2.40;;;6.60;99.90;;;;;;5025972;28;20034;-73
2022/02/24 05:01:12;;;;;;;5.55;1.98;;;6.70;99.90;;;;;;5027962;28;20085;-73
2022/02/24 05:03:38;;;;;;;4.72;2.95;;;6.80;99.90;;;;;;5026505;28;20029;-72
2022/02/24 05:06:05;;;;;;;5.97;1.92;;;6.80;99.90;;;;;;5021834;28;20105;-72
2022/02/24 05:08:31;;;;;;;4.80;2.30;;;6.90;99.90;;;;;;5029129;28;20084;-72
2022/02/24 05:10:56;;;;;;;3.38;2.42;;;6.90;99.90;;;;;;5028364;28;20033;-73
2022/02/24 05:13:22;;;;;;;5.07;2.00;;;6.90;99.90;;;;;;5023532;28;20109;-73
2022/02/24 05:15:49;;;;;;;5.55;3.13;;;6.80;99.90;;;;;;5022647;28;20061;-71
2022/02/24 05:18:14;;;;;;;9.05;4.43;;;6.70;99.90;;;;;;5026521;28;20438;-73
2022/02/24 05:20:40;;;;;;;8.55;6.07;;;6.60;99.90;;;;;;5024649;28;20068;-72
2022/02/24 05:23:05;;;;;;;9.18;6.00;;;6.70;99.90;;;;;;5021426;28;20105;-70
2022/02/24 05:25:34;;;;;;;8.02;5.57;;;6.60;99.90;;;;;;5025682;28;20030;-71
2022/02/24 05:28:05;;;;;;;12.00;5.68;;;6.50;99.90;;;;;;5021482;28;20076;-72
2022/02/24 05:30:31;;;;;;;8.85;5.75;;;6.20;99.90;;;;;;5021157;28;20611;-72
2022/02/24 05:32:57;;;;;;;7.40;5.07;;;6.00;99.90;;;;;;5027225;28;20134;-71
2022/02/24 05:35:22;;;;;;;10.65;4.47;;;5.80;99.90;;;;;;5023590;28;20103;-71
2022/02/24 05:37:48;;;;;;;5.97;4.15;;;5.80;99.90;;;;;;5028828;28;20029;-72
2022/02/24 05:40:14;;;;;;;10.13;5.90;;;5.80;99.90;;;;;;5022017;28;20029;-71
2022/02/24 05:42:39;;;;;;;5.65;3.40;;;5.90;99.90;;;;;;5019184;28;20033;-71
2022/02/24 05:45:05;;;;;;;12.32;4.72;;;6.00;99.90;;;;;;5018080;28;20022;-70
2022/02/24 05:47:31;;;;;;;10.70;4.40;;;6.00;99.90;;;;;;5020423;28;20022;-73
2022/02/24 05:49:57;;;;;;;8.98;4.75;;;6.00;99.90;;;;;;5023960;28;20563;-71
2022/02/24 05:52:22;;;;;;;5.18;3.80;;;6.10;99.90;;;;;;5024701;28;20450;-72
2022/02/24 05:54:48;;;;;;;7.32;4.15;;;6.00;99.90;;;;;;5027930;28;20664;-72
2022/02/24 05:57:13;;;;;;;7.25;3.92;;;5.90;99.90;;;;;;5025981;28;20046;-72
2022/02/24 05:59:39;;;;;;;4.78;3.70;;;6.00;99.90;;;;;;5018754;28;20032;-72
2022/02/24 06:02:05;;;;;;;12.73;3.70;;;6.10;99.90;;;;;;5024396;28;20401;-71
2022/02/24 06:04:30;;;;;;;4.90;3.70;;;6.20;99.90;;;;;;5023196;28;20473;-71
2022/02/24 06:06:56;;;;;;;7.88;3.78;;;6.30;99.90;;;;;;5025781;28;20030;-72
2022/02/24 06:09:22;;;;;;;4.93;4.03;;;6.20;99.90;;;;;;5024710;28;20056;-72
2022/02/24 06:11:49;;;;;;;6.28;4.88;;;6.20;99.90;;;;;;5016130;28;20064;-71
2022/02/24 06:14:15;;;;;;;6.45;4.30;;;6.20;99.90;;;;;;5022398;28;20028;-70
2022/02/24 06:16:41;;;;;;;6.38;4.47;;;6.10;99.90;;;;;;5017714;28;20033;-72
2022/02/24 06:19:07;;;;;;;4.60;4.10;;;6.10;99.90;;;;;;5028625;28;20465;-72
2022/02/24 06:21:32;;;;;;;12.13;5.13;;;6.00;99.90;;;;;;5022877;28;20025;-72
2022/02/24 06:23:58;;;;;;;6.07;4.22;;;6.00;99.90;;;;;;5034525;28;20021;-72
2022/02/24 06:26:23;;;;;;;6.88;4.32;;;6.00;99.90;;;;;;5024420;28;20053;-71
2022/02/24 06:28:49;;;;;;;5.63;4.15;;;6.10;99.90;;;;;;5021769;28;20115;-72
2022/02/24 06:31:14;;;;;;;9.45;3.95;;;6.30;99.90;;;;;;5022173;28;20479;-72
2022/02/24 06:33:40;;;;;;;6.38;4.18;;;6.30;99.90;;;;;;5028460;28;20104;-73
2022/02/24 06:36:06;;;;;;;6.40;4.60;;;6.40;99.90;;;;;;5021730;28;20069;-72
2022/02/24 06:38:31;;;;;;;8.18;4.75;;;6.50;99.90;;;;;;5023597;28;20032;-73
2022/02/24 06:40:57;;;;;;;8.52;4.38;;;6.60;99.90;;;;;;5010550;28;20033;-72
2022/02/24 06:43:23;;;;;;;7.68;4.63;;;6.70;99.90;;;;;;5019714;28;20052;-73
2022/02/24 06:45:49;;;;;;;6.35;4.93;;;6.60;99.90;;;;;;5018562;28;20104;-73
2022/02/24 06:48:16;;;;;;;9.43;4.57;;;6.60;99.90;;;;;;5026906;28;20108;-73
2022/02/24 06:50:43;;;;;;;5.93;4.05;;;6.70;99.90;;;;;;5029963;28;20470;-73
2022/02/24 06:53:09;;;;;;;11.38;4.43;;;6.70;99.90;;;;;;5017993;28;20540;-74
2022/02/24 06:55:35;;;;;;;8.48;4.55;;;6.70;99.90;;;;;;5021693;28;20041;-72
2022/02/24 06:58:01;;;;;;;4.88;4.30;;;6.80;99.90;;;;;;5026183;28;20025;-72
2022/02/24 07:00:26;;;;;;;8.27;5.60;;;6.80;99.90;;;;;;5018746;28;20029;-73
2022/02/24 07:02:52;;;;;;;9.40;4.72;;;6.80;99.90;;;;;;5030451;28;20029;-73
2022/02/24 07:05:18;;;;;;;6.38;4.57;;;6.80;99.90;;;;;;5029419;28;20032;-72
2022/02/24 07:07:44;;;;;;;7.30;5.43;;;6.90;99.90;;;;;;5021529;28;20391;-73
2022/02/24 07:10:12;;;;;;;6.57;5.22;;;6.90;99.90;;;;;;5030777;28;20026;-74
2022/02/24 07:12:42;;;;;;;8.43;5.43;;;6.90;99.90;;;;;;5027832;28;20111;-72
2022/02/24 07:15:09;;;;;;;5.45;4.65;;;6.90;99.90;;;;;;5027243;28;20057;-73
2022/02/24 07:17:43;;;;;;;6.47;4.38;;;7.00;99.90;;;;;;5022706;28;20036;-72
2022/02/24 07:20:10;;;;;;;9.07;5.07;;;7.00;99.90;;;;;;5028486;28;20033;-73
2022/02/24 07:22:36;;;;;;;5.65;4.60;;;7.00;99.90;;;;;;5026489;28;20029;-74
2022/02/24 07:25:02;;;;;;;7.05;4.38;;;7.10;99.90;;;;;;5030515;28;20036;-73
2022/02/24 07:27:28;;;;;;;6.50;4.47;;;7.10;99.90;;;;;;5023217;28;20405;-73
2022/02/24 07:29:53;;;;;;;8.00;7.20;;;7.20;99.90;;;;;;5022963;28;20037;-73
2022/02/24 07:32:19;;;;;;;6.95;4.95;;;7.20;99.90;;;;;;5027654;28;20108;-73
2022/02/24 07:34:45;;;;;;;6.30;5.10;;;7.30;99.90;;;;;;5026133;28;20056;-72
2022/02/24 07:37:11;;;;;;;5.38;4.88;;;7.50;99.90;;;;;;5026706;28;20475;-73
2022/02/24 07:39:37;;;;;;;7.80;4.72;;;7.50;99.90;;;;;;5030877;28;20018;-73
2022/02/24 07:42:03;;;;;;;7.72;4.80;;;7.60;99.90;;;;;;5029086;28;20037;-74
2022/02/24 07:44:28;;;;;;;7.03;5.20;;;7.60;99.90;;;;;;5027405;28;20029;-73
2022/02/24 07:46:54;;;;;;;7.53;3.88;;;7.60;99.90;;;;;;5022884;28;20064;-73
2022/02/24 07:49:23;;;;;;;8.00;5.28;;;7.70;99.90;;;;;;5027226;28;20030;-73
2022/02/24 07:51:51;;;;;;;5.28;4.78;;;7.80;99.90;;;;;;5026067;28;20034;-73
2022/02/24 07:54:23;;;;;;;7.20;5.00;;;7.80;99.90;;;;;;5028744;28;20390;-73
2022/02/24 07:56:52;;;;;;;6.00;5.18;;;7.90;99.90;;;;;;5025457;28;20424;-72
2022/02/24 07:59:19;;;;;;;5.95;4.88;;;7.90;99.90;;;;;;5027260;28;20033;-73
2022/02/24 08:01:44;;;;;;;8.98;5.95;;;8.00;99.90;;;;;;5026128;28;20021;-72
2022/02/24 08:04:10;;;;;;;9.95;5.28;;;8.00;99.90;;;;;;5026326;28;20037;-72
2022/02/24 08:06:36;;;;;;;7.13;5.75;;;8.30;99.90;;;;;;5030551;28;20146;-73
2022/02/24 08:09:06;;;;;;;7.75;5.20;;;8.30;99.90;;;;;;5030626;28;20026;-73
2022/02/24 08:11:32;;;;;;;9.90;5.70;;;8.40;99.90;;;;;;5026345;28;20026;-72
2022/02/24 08:13:57;;;;;;;8.38;5.47;;;8.40;99.90;;;;;;5025607;28;20952;-73
2022/02/24 08:16:23;;;;;;;11.43;6.57;;;8.20;99.90;;;;;;5020514;28;20022;-74
2022/02/24 08:18:48;;;;;;;10.50;5.70;;;8.20;99.90;;;;;;5020509;28;20108;-73
2022/02/24 08:21:14;;;;;;;11.63;5.68;;;8.30;99.90;;;;;;5027429;28;20029;-72
2022/02/24 08:23:39;;;;;;;11.93;5.97;;;8.30;99.90;;;;;;5022060;28;20037;-73
2022/02/24 08:26:05;;;;;;;10.32;5.25;;;8.30;99.90;;;;;;5028391;28;20037;-73
2022/02/24 08:28:30;;;;;;;9.27;6.03;;;8.30;99.90;;;;;;5032306;28;20359;-71
2022/02/24 08:30:56;;;;;;;12.35;5.85;;;8.30;99.90;;;;;;5029059;28;20087;-73
2022/02/24 08:33:22;;;;;;;8.77;5.95;;;8.40;99.90;;;;;;5031118;28;20031;-74
2022/02/24 08:35:48;;;;;;;13.32;4.90;;;8.40;99.90;;;;;;5031164;28;20056;-73
2022/02/24 08:38:13;;;;;;;12.77;6.90;;;8.60;99.90;;;;;;5026947;28;20104;-73
2022/02/24 08:40:39;;;;;;;12.88;5.38;;;8.70;99.90;;;;;;5029469;28;20477;-73
2022/02/24 08:43:05;;;;;;;10.75;5.15;;;8.80;99.90;;;;;;5032555;28;20029;-73
2022/02/24 08:45:32;;;;;;;6.20;4.90;;;8.70;99.90;;;;;;5026399;28;20025;-73
2022/02/24 08:47:58;;;;;;;9.65;5.25;;;9.00;99.90;;;;;;5027011;28;20052;-73
2022/02/24 08:50:23;;;;;;;6.88;5.18;;;9.10;99.90;;;;;;5024222;28;20071;-72
2022/02/24 08:52:49;;;;;;;8.38;5.10;;;9.10;99.90;;;;;;5028260;28;20021;-74
2022/02/24 08:55:14;;;;;;;9.75;5.32;;;9.10;99.90;;;;;;5028618;28;20014;-74
2022/02/24 08:57:40;;;;;;;12.38;6.63;;;9.20;99.90;;;;;;5029386;28;20044;-73
2022/02/24 09:00:08;;;;;;;11.88;5.97;;;9.30;99.90;;;;;;5025748;28;20018;-73
2022/02/24 09:02:34;;;;;;;10.50;5.32;;;9.40;99.90;;;;;;5023636;28;20386;-73
2022/02/24 09:05:00;;;;;;;17.55;5.78;;;9.50;99.90;;;;;;5038661;28;20018;-73
2022/02/24 09:07:26;;;;;;;14.40;5.72;;;9.50;99.90;;;;;;5028038;28;20029;-73
2022/02/24 09:09:52;;;;;;;6.75;4.85;;;9.70;99.90;;;;;;5027036;28;20038;-73
2022/02/24 09:12:17;;;;;;;6.78;5.25;;;9.80;99.90;;;;;;5027326;28;20026;-73
2022/02/24 09:14:43;;;;;;;11.48;4.88;;;9.90;99.90;;;;;;5031989;28;20449;-73
2022/02/24 09:17:10;;;;;;;10.05;5.32;;;9.90;99.90;;;;;;5025023;28;20033;-72
2022/02/24 09:19:39;;;;;;;7.05;3.30;;;10.10;99.90;;;;;;5027004;28;20105;-73
2022/02/24 09:22:06;;;;;;;8.27;3.00;;;10.30;99.90;;;;;;5031739;28;20516;-73
2022/02/24 09:24:33;;;;;;;8.60;2.90;;;10.50;99.90;;;;;;5015218;28;20076;-73
2022/02/24 09:27:00;;;;;;;8.25;2.78;;;10.50;99.90;;;;;;5008255;28;20382;-72
2022/02/24 09:29:28;;;;;;;4.25;2.20;;;10.70;99.90;;;;;;5027341;28;20147;-73
2022/02/24 09:31:54;;;;;;;5.85;2.30;;;10.80;99.90;;;;;;5025828;28;20120;-72
2022/02/24 09:34:20;;;;;;;5.15;2.80;;;10.90;99.90;;;;;;5036869;28;20041;-73
2022/02/24 09:36:47;;;;;;;5.70;2.42;;;10.90;99.90;;;;;;5028827;28;20370;-73
2022/02/24 09:39:13;;;;;;;3.25;2.38;;;10.90;99.90;;;;;;5035776;28;20025;-73
2022/02/24 09:41:39;;;;;;;2.80;2.25;;;11.10;99.90;;;;;;5024568;28;20018;-72
2022/02/24 09:44:05;;;;;;;4.13;2.50;;;11.20;99.90;;;;;;5019962;28;20085;-73
2022/02/24 09:46:34;;;;;;;3.88;2.28;;;11.30;99.90;;;;;;5024120;28;20481;-73
2022/02/24 09:49:01;;;;;;;3.88;2.17;;;11.50;99.90;;;;;;5023715;28;20036;-74
2022/02/24 09:51:27;;;;;;;5.82;2.28;;;11.90;99.90;;;;;;5024962;28;20137;-73
2022/02/24 09:53:53;;;;;;;3.78;2.45;;;11.80;99.90;;;;;;5022510;28;20485;-73
2022/02/24 09:56:20;;;;;;;6.55;2.28;;;11.70;99.90;;;;;;5020932;28;20061;-73
2022/02/24 09:58:48;;;;;;;4.10;2.40;;;11.80;99.90;;;;;;5025491;28;20032;-75
2022/02/24 10:01:15;;;;;;;7.38;1.98;;;11.80;99.90;;;;;;5023001;28;20026;-74
2022/02/24 10:03:45;;;;;;;5.30;2.10;;;11.90;99.90;;;;;;5017419;28;20486;-74
2022/02/24 10:06:12;;;;;;;4.07;1.90;;;12.30;99.90;;;;;;5017055;28;20116;-73
2022/02/24 10:08:43;;;;;;;2.67;1.90;;;12.50;99.90;;;;;;5025870;28;20037;-74
2022/02/24 10:11:17;;;;;;;3.35;1.38;;;12.60;99.90;;;;;;5030998;28;20482;-74
2022/02/24 10:14:00;;;;;;;6.32;1.80;;;12.80;99.90;;;;;;5018556;28;20041;-74
2022/02/24 10:16:27;;;;;;;3.45;1.55;;;12.80;99.90;;;;;;5020768;28;20030;-74
2022/02/24 10:18:53;;;;;;;2.25;1.42;;;12.90;99.90;;;;;;5021004;28;20073;-72
2022/02/24 10:21:20;;;;;;;4.05;1.52;;;13.00;99.90;;;;;;5030573;28;20037;-72
2022/02/24 10:23:46;;;;;;;4.38;1.63;;;13.00;99.90;;;;;;5015244;28;20076;-74
2022/02/24 10:26:14;;;;;;;5.55;1.70;;;13.20;99.90;;;;;;5023711;28;20060;-74
2022/02/24 10:28:51;;;;;;;5.82;1.55;;;13.40;99.90;;;;;;5028275;28;20061;-74
2022/02/24 10:31:27;;;;;;;3.60;1.42;;;13.60;99.90;;;;;;5027275;28;20088;-75
2022/02/24 10:34:03;;;;;;;7.45;2.08;;;13.70;99.90;;;;;;5035851;28;20103;-73
2022/02/24 10:36:33;;;;;;;2.17;1.10;;;13.70;99.50;;;;;;5036930;28;20104;-74
2022/02/24 10:39:01;;;;;;;4.22;1.45;;;13.80;99.30;;;;;;5020943;28;20052;-73
2022/02/24 10:41:30;;;;;;;2.20;1.90;;;13.70;99.00;;;;;;5030975;28;20025;-73
2022/02/24 10:44:14;;;;;;;4.63;1.23;;;13.60;98.70;;;;;;5026103;28;20097;-75
2022/02/24 10:46:40;;;;;;;3.15;1.10;;;13.60;98.80;;;;;;5020957;28;20038;-72
2022/02/24 10:49:05;;;;;;;2.03;1.30;;;13.50;98.70;;;;;;5029795;28;20095;-74
2022/02/24 10:51:32;;;;;;;2.42;1.33;;;13.50;98.90;;;;;;5034589;28;20034;-72
2022/02/24 10:54:02;;;;;;;3.72;1.35;;;13.50;98.90;;;;;;5031846;28;20091;-74
2022/02/24 10:56:28;;;;;;;4.28;1.45;;;13.60;98.80;;;;;;5020266;28;20111;-73
2022/02/24 10:58:54;;;;;;;7.05;1.30;;;13.70;98.80;;;;;;5021617;28;20041;-73
2022/02/24 11:01:21;;;;;;;1.60;1.13;;;13.80;98.50;;;;;;5036221;28;20048;-72
2022/02/24 11:04:02;;;;;;;1.63;1.10;;;13.80;98.20;;;;;;5016531;28;20371;-73
2022/02/24 11:06:30;;;;;;;4.28;1.25;;;13.90;98.10;;;;;;5028882;28;20028;-73
2022/02/24 11:08:57;;;;;;;4.03;1.17;;;14.00;97.90;;;;;;5032792;28;20044;-73
2022/02/24 11:11:31;;;;;;;4.32;1.60;;;14.20;97.50;;;;;;5031970;28;20386;-74
2022/02/24 11:13:59;;;;;;;3.80;1.35;;;14.40;97.30;;;;;;5015329;28;20394;-74
2022/02/24 11:16:25;;;;;;;3.13;1.10;;;14.60;96.80;;;;;;5015994;28;20029;-72
2022/02/24 11:18:52;;;;;;;1.42;1.25;;;14.90;96.10;;;;;;5015867;28;20022;-73
2022/02/24 11:21:20;;;;;;;2.97;1.45;;;14.90;96.00;;;;;;5028596;28;20443;-73
2022/02/24 11:23:48;;;;;;;4.05;1.23;;;14.70;96.10;;;;;;5015012;28;20470;-74
2022/02/24 11:26:23;;;;;;;2.58;1.50;;;15.00;95.40;;;;;;5028663;28;20022;-73
2022/02/24 11:29:03;;;;;;;3.08;1.40;;;15.30;95.30;;;;;;5020095;28;20517;-73
2022/02/24 11:31:41;;;;;;;3.00;0.98;;;15.50;94.90;;;;;;5020204;28;20049;-73
2022/02/24 11:34:06;;;;;;;5.95;1.02;;;15.30;94.00;;;;;;5023472;28;20038;-74
2022/02/24 11:36:39;;;;;;;2.22;1.10;;;15.50;93.80;;;;;;5024084;28;20389;-74
2022/02/24 11:39:09;;;;;;;2.72;1.33;;;15.40;93.60;;;;;;5024903;28;20028;-73
2022/02/24 11:41:45;;;;;;;3.13;0.90;;;15.50;92.80;;;;;;5022643;28;20112;-73
2022/02/24 11:44:49;;;;;;;3.90;1.13;;;15.60;92.20;;;;;;5024341;28;20516;-73
2022/02/24 11:47:15;;;;;;;3.05;0.93;;;15.40;91.80;;;;;;4976606;28;20117;-73
2022/02/24 11:49:53;;;;;;;4.25;1.88;;;15.60;91.80;;;;;;4966951;28;20130;-74
2022/02/24 11:52:22;;;;;;;1.55;0.73;;;15.50;91.20;;;;;;4990990;28;20037;-76
2022/02/24 11:54:48;;;;;;;3.70;1.00;;;15.50;91.00;;;;;;5030465;28;20051;-77
2022/02/24 11:57:34;;;;;;;3.60;0.70;;;15.50;90.50;;;;;;5029127;28;20494;-76
2022/02/24 12:00:12;;;;;;;3.75;1.15;;;15.40;90.10;;;;;;5037430;28;20490;-77
2022/02/24 12:02:46;;;;;;;1.70;0.90;;;15.30;89.70;;;;;;5034560;28;20049;-77
2022/02/24 12:05:31;;;;;;;1.85;0.98;;;15.10;90.10;;;;;;5034403;28;20032;-77
2022/02/24 12:08:01;;;;;;;3.83;1.20;;;15.10;89.90;;;;;;5020705;28;20527;-75
2022/02/24 12:10:46;;;;;;;2.22;1.00;;;15.20;89.90;;;;;;5021051;28;20616;-77
2022/02/24 12:13:27;;;;;;;2.08;1.05;;;15.30;88.90;;;;;;5025316;28;20030;-76
2022/02/24 12:16:22;;;;;;;3.40;0.80;;;15.30;88.40;;;;;;5030890;28;20502;-76
2022/02/24 12:18:49;;;;;;;2.17;1.30;;;15.30;88.30;;;;;;5018491;28;20084;-77
2022/02/24 12:21:36;;;;;;;2.75;1.15;;;15.20;88.30;;;;;;5031146;28;20033;-79
2022/02/24 12:24:12;;;;;;;2.80;1.15;;;15.20;87.70;;;;;;5025532;28;20037;-78
2022/02/24 12:26:43;;;;;;;3.53;1.30;;;15.20;87.60;;;;;;5036740;28;20091;-78
2022/02/24 12:29:37;;;;;;;1.80;0.93;;;15.40;87.30;;;;;;5035138;28;20029;-78
2022/02/24 12:32:05;;;;;;;2.15;0.98;;;15.40;87.20;;;;;;5043676;28;20490;-79
2022/02/24 12:34:31;;;;;;;3.03;1.25;;;15.60;86.40;;;;;;5045051;28;20039;-79
2022/02/24 12:37:07;;;;;;;2.50;1.60;;;15.40;87.00;;;;;;5024930;28;20538;-79
2022/02/24 12:39:34;;;;;;;3.60;1.20;;;15.40;86.80;;;;;;5045303;28;20025;-79
2022/02/24 12:42:02;;;;;;;2.72;1.38;;;15.20;86.30;;;;;;5055889;28;20034;-79
2022/02/24 12:44:27;;;;;;;4.15;1.30;;;15.10;87.20;;;;;;5045780;28;20024;-80
2022/02/24 12:46:53;;;;;;;1.63;1.20;;;15.10;87.80;;;;;;5029059;28;20033;-79
2022/02/24 12:49:19;;;;;;;2.80;1.00;;;15.10;87.60;;;;;;5042062;28;20488;-80
2022/02/24 12:51:45;;;;;;;2.50;1.30;;;14.90;86.10;;;;;;5035239;28;20022;-79
2022/02/24 12:54:15;;;;;;;5.45;1.30;;;14.80;86.40;;;;;;5028215;28;20026;-79